Terminal Aerodrome Forecast
Issued by NWS

Home | Current Version | Previous Version | Text Only | Print | Product List | Glossary On
Versions: 1 2 3 4 5 6 7 8 9 10 11 12 13 14 15 16 17 18 19 20 21 22 23 24 25 26
693
FTUS41 KOKX 110833 AAA
TAFGON
TAF AMD
KGON 110833Z 1109/1206 29007KT P6SM SCT030 OVC050
      TEMPO 1109/1111 3SM -SN BKN030
     FM111100 29010G18KT P6SM SCT020 BKN040
     FM111400 28016G26KT P6SM SCT030 BKN040
     FM120200 30012G20KT P6SM FEW040=

USA.gov is the U.S. government's official web portal to all federal, state and local government web resources and services.